createdAt,value
2023-02-03T00:03:38.389Z,10.17
2023-02-03T00:08:40.456Z,5.13
2023-02-03T00:13:42.248Z,7.68
2023-02-03T00:18:44.041Z,6.60
2023-02-03T00:23:45.856Z,7.37
2023-02-03T00:28:48.030Z,9.17
2023-02-03T00:33:58.037Z,8.10
2023-02-03T00:39:01.083Z,7.80
2023-02-03T00:44:02.859Z,7.80
2023-02-03T00:49:05.442Z,10.00
2023-02-03T00:54:07.388Z,7.40
2023-02-03T00:59:09.287Z,6.40
2023-02-03T01:04:11.107Z,7.83
2023-02-03T01:09:12.966Z,5.67
2023-02-03T01:14:14.774Z,7.03
2023-02-03T01:19:17.019Z,7.70
2023-02-03T01:24:18.809Z,7.57
2023-02-03T01:29:20.613Z,6.82
2023-02-03T01:34:24.618Z,5.15
2023-02-03T01:39:27.370Z,4.88
2023-02-03T01:44:52.697Z,5.43
2023-02-03T01:50:15.579Z,4.30
2023-02-03T01:55:23.584Z,4.47
2023-02-03T02:00:26.161Z,5.50
2023-02-03T02:05:39.892Z,6.07
2023-02-03T02:10:41.786Z,5.83
2023-02-03T02:16:09.722Z,6.45
2023-02-03T02:21:36.725Z,7.72
2023-02-03T02:26:50.515Z,7.47
2023-02-03T02:31:56.647Z,9.60
2023-02-03T02:37:08.590Z,7.18
2023-02-03T02:42:36.799Z,6.55
2023-02-03T02:47:39.223Z,7.18
2023-02-03T02:52:44.958Z,4.97
2023-02-03T02:57:49.314Z,7.45
2023-02-03T03:02:53.878Z,5.30
2023-02-03T03:08:02.880Z,5.50
2023-02-03T03:13:09.983Z,6.00
2023-02-03T03:18:49.099Z,5.68
2023-02-03T03:23:54.960Z,5.97
2023-02-03T03:29:19.447Z,5.38
2023-02-03T03:34:21.416Z,5.68
2023-02-03T03:39:31.402Z,5.18
2023-02-03T03:44:39.763Z,5.75
2023-02-03T03:49:45.326Z,6.18
2023-02-03T03:54:49.435Z,7.53
2023-02-03T03:59:51.693Z,8.25
2023-02-03T04:04:54.939Z,8.63
2023-02-03T04:09:56.757Z,9.38
2023-02-03T04:14:58.544Z,7.63
2023-02-03T04:20:00.423Z,8.98
2023-02-03T04:25:02.223Z,9.85
2023-02-03T04:30:04.946Z,10.35
2023-02-03T04:35:08.016Z,10.98
2023-02-03T04:40:10.490Z,11.73
2023-02-03T04:45:12.922Z,10.18
2023-02-03T04:50:14.806Z,10.55
2023-02-03T04:55:16.606Z,13.35
2023-02-03T05:00:18.675Z,11.45
2023-02-03T05:05:21.310Z,13.57
2023-02-03T05:10:23.077Z,14.35
2023-02-03T05:15:24.968Z,17.65
2023-02-03T05:20:28.532Z,12.32
2023-02-03T05:25:31.294Z,14.68
2023-02-03T05:30:33.187Z,14.95
2023-02-03T05:35:35.222Z,14.30
2023-02-03T05:40:55.531Z,12.55
2023-02-03T05:46:01.280Z,14.10
2023-02-03T05:51:03.224Z,12.15
2023-02-03T05:56:05.277Z,12.75
2023-02-03T06:01:07.092Z,15.10
2023-02-03T06:06:08.936Z,12.98
2023-02-03T06:11:11.882Z,11.05
2023-02-03T06:16:13.740Z,13.73
2023-02-03T06:21:15.622Z,10.55
2023-02-03T06:26:17.462Z,10.15
2023-02-03T06:31:19.374Z,9.65
2023-02-03T06:36:21.276Z,8.52
2023-02-03T06:41:27.539Z,9.07
2023-02-03T06:46:30.522Z,8.20
2023-02-03T06:51:32.402Z,6.40
2023-02-03T06:56:34.287Z,6.70
2023-02-03T07:01:37.208Z,7.45
2023-02-03T07:06:39.047Z,5.93
2023-02-03T07:11:40.837Z,4.32
2023-02-03T07:16:42.643Z,4.85
2023-02-03T07:21:44.405Z,4.13
2023-02-03T07:26:46.212Z,3.17
2023-02-03T07:31:48.177Z,3.58
2023-02-03T07:36:49.990Z,4.15
2023-02-03T07:41:51.825Z,3.50
2023-02-03T07:46:56.126Z,3.53
2023-02-03T07:51:57.919Z,4.57
2023-02-03T07:56:59.708Z,5.00
2023-02-03T08:02:01.632Z,3.72
2023-02-03T08:07:04.092Z,5.55
2023-02-03T08:12:06.218Z,6.82
2023-02-03T08:17:08.022Z,4.85
2023-02-03T08:22:16.025Z,4.40
2023-02-03T08:27:20.746Z,5.63
2023-02-03T08:32:23.203Z,8.63
2023-02-03T08:37:25.349Z,4.70
2023-02-03T08:42:27.890Z,6.40
2023-02-03T08:47:29.746Z,4.07
2023-02-03T08:52:31.531Z,4.93
2023-02-03T08:57:36.974Z,5.63
2023-02-03T09:02:38.771Z,6.55
2023-02-03T09:07:40.700Z,6.28
2023-02-03T09:12:42.500Z,5.88
2023-02-03T09:17:44.340Z,6.95
2023-02-03T09:22:46.135Z,8.23
2023-02-03T09:27:48.296Z,4.85
2023-02-03T09:32:54.531Z,5.30
2023-02-03T09:37:56.341Z,6.78
2023-02-03T09:43:10.454Z,6.35
2023-02-03T09:48:23.024Z,5.15
2023-02-03T09:53:45.400Z,5.65
2023-02-03T09:58:47.325Z,6.00
2023-02-03T10:03:54.251Z,5.55
2023-02-03T10:08:59.551Z,6.63
2023-02-03T10:14:22.624Z,9.55
2023-02-03T10:19:36.763Z,6.88
2023-02-03T10:24:43.811Z,7.72
2023-02-03T10:29:51.254Z,5.18
2023-02-03T10:34:53.261Z,6.40
2023-02-03T10:39:57.419Z,6.70
2023-02-03T10:44:59.894Z,7.07
2023-02-03T10:50:16.800Z,8.98
2023-02-03T10:55:22.878Z,6.85
2023-02-03T11:00:30.863Z,8.82
2023-02-03T11:05:32.790Z,5.57
2023-02-03T11:10:40.775Z,6.97
2023-02-03T11:16:02.510Z,5.05
2023-02-03T11:21:14.322Z,6.55
2023-02-03T11:26:20.912Z,6.38
2023-02-03T11:31:28.399Z,5.20
2023-02-03T11:36:32.690Z,8.70
2023-02-03T11:41:38.441Z,5.82
2023-02-03T11:46:40.776Z,5.78
2023-02-03T11:51:50.793Z,5.65
2023-02-03T11:57:01.753Z,6.35
2023-02-03T12:02:28.168Z,5.03
2023-02-03T12:08:25.575Z,7.65
2023-02-03T12:13:44.281Z,5.30
2023-02-03T12:18:49.114Z,4.35
2023-02-03T12:24:09.219Z,5.10
2023-02-03T12:29:23.988Z,5.75
2023-02-03T12:34:36.573Z,4.45
2023-02-03T12:39:45.714Z,4.45
2023-02-03T12:44:54.191Z,4.82
2023-02-03T12:50:40.819Z,4.53
2023-02-03T12:55:55.871Z,7.55
2023-02-03T13:01:04.020Z,4.25
2023-02-03T13:06:20.527Z,3.70
2023-02-03T13:11:44.079Z,4.85
2023-02-03T13:16:53.448Z,7.00
2023-02-03T13:21:55.433Z,3.25
2023-02-03T13:27:13.386Z,3.22
2023-02-03T13:32:34.583Z,3.90
2023-02-03T13:38:09.661Z,5.55
2023-02-03T13:43:28.396Z,3.50
2023-02-03T13:48:38.936Z,4.57
2023-02-03T13:53:43.870Z,4.00
2023-02-03T13:59:03.435Z,4.90
2023-02-03T14:04:09.155Z,3.08
2023-02-03T14:09:31.421Z,3.83
2023-02-03T14:14:36.337Z,2.85
2023-02-03T14:19:50.308Z,4.30
2023-02-03T14:24:52.873Z,2.97
2023-02-03T14:30:07.753Z,2.95
2023-02-03T14:35:18.357Z,2.63
2023-02-03T14:40:45.415Z,3.25
2023-02-03T14:45:59.589Z,5.25
2023-02-03T14:51:20.238Z,3.65
2023-02-03T14:57:08.154Z,4.70
2023-02-03T15:02:17.262Z,5.85
2023-02-03T15:07:44.137Z,7.60
2023-02-03T15:12:51.724Z,5.57
2023-02-03T15:17:56.305Z,9.00
2023-02-03T15:22:58.411Z,9.02
2023-02-03T15:28:19.401Z,22.95
2023-02-03T15:33:22.691Z,8.45
2023-02-03T15:38:39.273Z,9.57
2023-02-03T15:43:43.939Z,9.80
2023-02-03T15:48:54.992Z,10.00
2023-02-03T15:54:13.679Z,17.90
2023-02-03T15:59:26.979Z,11.75
2023-02-03T16:04:31.059Z,10.48
2023-02-03T16:09:39.082Z,19.50
2023-02-03T16:14:42.185Z,19.70
2023-02-03T16:19:51.335Z,12.70
2023-02-03T16:24:53.264Z,11.65
2023-02-03T16:30:22.909Z,10.63
2023-02-03T16:35:43.846Z,9.20
2023-02-03T16:41:06.160Z,13.88
2023-02-03T16:46:30.482Z,16.35
2023-02-03T16:51:42.476Z,10.82
2023-02-03T16:56:44.431Z,13.80
2023-02-03T17:01:46.335Z,9.02
2023-02-03T17:06:51.252Z,10.50
2023-02-03T17:11:53.089Z,10.45
2023-02-03T17:16:55.287Z,17.65
2023-02-03T17:21:57.089Z,8.95
2023-02-03T17:26:59.146Z,12.57
2023-02-03T17:32:01.061Z,14.13
2023-02-03T17:37:03.043Z,12.25
2023-02-03T17:58:03.968Z,13.10
2023-02-03T18:03:05.817Z,16.73
2023-02-03T18:08:16.189Z,14.20
2023-02-03T18:13:18.425Z,13.30
2023-02-03T18:18:21.443Z,11.45
2023-02-03T18:23:23.302Z,16.48
2023-02-03T18:28:25.762Z,14.30
2023-02-03T18:33:28.787Z,10.85
2023-02-03T18:38:33.349Z,17.35
2023-02-03T18:43:35.755Z,16.63
2023-02-03T18:48:37.682Z,13.38
2023-02-03T18:53:39.809Z,10.55
2023-02-03T18:58:41.792Z,11.40
2023-02-03T19:03:43.624Z,12.35
2023-02-03T19:08:46.214Z,11.23
2023-02-03T19:13:48.109Z,13.27
2023-02-03T19:18:50.003Z,13.68
2023-02-03T19:23:51.852Z,12.43
2023-02-03T19:28:54.589Z,14.98
2023-02-03T19:34:02.592Z,12.13
2023-02-03T19:39:04.399Z,12.50
2023-02-03T19:44:07.048Z,12.38
2023-02-03T19:49:15.147Z,11.32
2023-02-03T19:54:17.045Z,15.05
2023-02-03T19:59:18.814Z,17.77
2023-02-03T20:04:20.760Z,11.00
2023-02-03T20:09:22.910Z,15.10
2023-02-03T20:14:24.698Z,10.88
2023-02-03T20:19:26.503Z,15.30
2023-02-03T20:24:28.367Z,12.27
2023-02-03T20:29:30.228Z,11.50
2023-02-03T20:34:32.108Z,12.45
2023-02-03T20:39:34.369Z,12.35
2023-02-03T20:44:36.138Z,11.85
2023-02-03T20:49:37.918Z,17.20
2023-02-03T20:54:40.407Z,13.55
2023-02-03T20:59:44.559Z,12.38
2023-02-03T21:04:58.460Z,15.05
2023-02-03T21:10:00.702Z,12.02
2023-02-03T21:15:03.008Z,14.23
2023-02-03T21:20:24.576Z,21.15
2023-02-03T21:25:33.065Z,11.70
2023-02-03T21:30:35.261Z,15.48
2023-02-03T21:35:37.903Z,12.55
2023-02-03T21:40:39.700Z,13.43
2023-02-03T21:45:42.699Z,15.27
2023-02-03T21:50:44.505Z,15.95
2023-02-03T21:55:46.342Z,19.35
2023-02-03T22:00:49.121Z,17.67
2023-02-03T22:05:50.986Z,13.48
2023-02-03T22:10:52.748Z,19.55
2023-02-03T22:15:54.538Z,15.18
2023-02-03T22:20:56.369Z,17.25
2023-02-03T22:25:58.265Z,15.48
2023-02-03T22:31:00.417Z,14.68
2023-02-03T22:36:03.605Z,15.10
2023-02-03T22:41:06.345Z,18.15
2023-02-03T22:46:08.568Z,10.10
2023-02-03T22:51:10.468Z,8.68
2023-02-03T22:56:12.343Z,11.05
2023-02-03T23:01:14.177Z,9.40
2023-02-03T23:06:15.977Z,10.30
2023-02-03T23:11:17.921Z,17.58
2023-02-03T23:16:19.788Z,16.33
2023-02-03T23:21:21.656Z,15.02
2023-02-03T23:26:23.451Z,18.70
2023-02-03T23:31:25.633Z,12.88
2023-02-03T23:36:27.507Z,15.15
2023-02-03T23:41:29.277Z,12.75
2023-02-03T23:46:31.130Z,11.65
2023-02-03T23:51:32.933Z,14.23
2023-02-03T23:56:34.726Z,11.02
